Greenfield, IN

6:17 AM EDT on August 30, 2014 (GMT -0400)
KINGREEN7 | Change Station
CLOSE
Current Station
Personal Weather Station
Location: Greenfield, IN
Elevation: 865 ft
Nearby Weather Stations

Elev 865 ft 39.79 °N, 85.80 °W | Updated 1 minute ago

Partly Cloudy
Partly Cloudy
70.8 °F
Feels Like 72 °F
N
2.0
Wind Variable Wind from SW
Gusts 6.0 mph

Today
High -- | Low -- °F
--% Chance of Precip.
Yesterday
High -- | Low -- °F
Precip. -- in
7:09 AM 8:17 PM
Waxing Crescent, 21% visible
Pressure 30.00 in
Visibility 10.0 miles
Clouds Scattered Clouds 7500 ft
Scattered Clouds 9000 ft
Heat Index 72 °F
Dew Point 63 °F
Humidity 77%
Rainfall 0.00 in
Snow Depth Not available.
UV 0 out of 12
Pollen 10.60 out of 12
Ozone Good
PM2.5 Moderate
Flu Activity Not available.
METAR KMQJ 300955Z AUTO 18004KT 10SM SCT075 SCT090 21/19 A3000 RMK AO1

More Conditions Fewer Conditions

Pressure 30.00 in
Visibility 10.0 miles
Clouds Scattered Clouds 7500 ft
Scattered Clouds 9000 ft
Heat Index 72 °F
Dew Point 63 °F
Humidity 77%
Rainfall 0.00 in
Snow Depth Not available.
UV 0 out of 12
Pollen 10.60 out of 12
Ozone Good
PM2.5 Moderate
Flu Activity Not available.
METAR KMQJ 300955Z AUTO 18004KT 10SM SCT075 SCT090 21/19 A3000 RMK AO1

More Conditions Fewer Conditions

10-Day Weather Forecast

Almanac

Astronomy

Aug. 30, 2014 Rise Set
Actual Time 7:09 AM EDT 8:17 PM EDT
Civil Twilight 6:41 AM EDT 8:45 PM EDT
Nautical Twilight 6:08 AM EDT 9:18 PM EDT
Astronomical Twilight 5:33 AM EDT 9:52 PM EDT
Moon 11:55 AM EDT 10:52 PM EDT
Length of Visible Light 14h 03m
Length of Day
13h 08m
Tomorrow will be 2m 29s shorter.
Waxing Crescent, 21% of the Moon is Illuminated
Today
Waxing Crescent
Sep 2
First Quarter
Sep 8
Full
Sep 15
Last Quarter
Sep 24
New

Today's Extremes

State Highs State Lows

Community

WunderPhotos

Upload Photos

1,748,481 photos uploaded!

Nearby

Air Quality

  Air Quality AQ Index Pollutant
Yesterday Good
PM10
Yesterday Good
OZONE
Current Moderate
PM2.5
Current Good
OZONE
Saturday Moderate
PM2.5
Saturday Good
OZONE
Sunday Moderate
PM2.5
Sunday Good
OZONE
Monday Moderate
PM2.5
Monday Good
OZONE
Tuesday Moderate
PM2.5
Tuesday Good
OZONE

Snow Depth

Station Depth Elevation
No new snow has been reported.

Earthquake Activity

City Distance Mag. Time & Date
No recent earthquake activity has been reported nearby.
Minimum magnitude displayed is 2.5.

Coastal Water Temperatures

Place Temperature
No Stations Reporting

Nearby Weather Stations